sensor_id;sensor_type;location;lat;lon;timestamp;pressure;altitude;pressure_sealevel;temperature;humidity
59337;BME280;45115;52.002;4.686;2023-06-19T00:00:53;100820.31;;;21.30;65.55
59337;BME280;45115;52.002;4.686;2023-06-19T00:03:19;100813.00;;;21.22;66.03
59337;BME280;45115;52.002;4.686;2023-06-19T00:05:46;100805.75;;;21.08;66.82
59337;BME280;45115;52.002;4.686;2023-06-19T00:08:13;100812.38;;;21.20;66.80
59337;BME280;45115;52.002;4.686;2023-06-19T00:10:39;100796.09;;;21.17;67.22
59337;BME280;45115;52.002;4.686;2023-06-19T00:13:07;100808.97;;;21.18;67.42
59337;BME280;45115;52.002;4.686;2023-06-19T00:15:34;100812.56;;;21.19;67.54
59337;BME280;45115;52.002;4.686;2023-06-19T00:18:00;100818.81;;;21.14;67.63
59337;BME280;45115;52.002;4.686;2023-06-19T00:20:27;100830.16;;;21.13;68.10
59337;BME280;45115;52.002;4.686;2023-06-19T00:22:54;100832.09;;;21.05;68.68
59337;BME280;45115;52.002;4.686;2023-06-19T00:25:20;100814.72;;;20.90;69.10
59337;BME280;45115;52.002;4.686;2023-06-19T00:27:47;100826.47;;;20.86;69.52
59337;BME280;45115;52.002;4.686;2023-06-19T00:30:15;100824.94;;;20.77;70.21
59337;BME280;45115;52.002;4.686;2023-06-19T00:32:44;100833.50;;;20.62;71.24
59337;BME280;45115;52.002;4.686;2023-06-19T00:35:16;100829.63;;;20.57;71.72
59337;BME280;45115;52.002;4.686;2023-06-19T00:37:44;100835.56;;;20.41;72.93
59337;BME280;45115;52.002;4.686;2023-06-19T00:40:16;100830.88;;;20.41;73.28
59337;BME280;45115;52.002;4.686;2023-06-19T00:42:46;100833.22;;;20.51;72.81
59337;BME280;45115;52.002;4.686;2023-06-19T00:45:12;100833.72;;;20.67;72.36
59337;BME280;45115;52.002;4.686;2023-06-19T00:47:40;100847.63;;;20.67;72.76
59337;BME280;45115;52.002;4.686;2023-06-19T00:50:07;100843.97;;;20.60;73.12
59337;BME280;45115;52.002;4.686;2023-06-19T00:52:34;100841.19;;;20.67;73.58
59337;BME280;45115;52.002;4.686;2023-06-19T00:55:01;100835.41;;;20.62;73.44
59337;BME280;45115;52.002;4.686;2023-06-19T00:57:30;100837.53;;;20.60;73.64
59337;BME280;45115;52.002;4.686;2023-06-19T00:59:56;100842.47;;;20.58;74.22
59337;BME280;45115;52.002;4.686;2023-06-19T01:02:24;100836.88;;;20.51;74.53
59337;BME280;45115;52.002;4.686;2023-06-19T01:04:53;100839.44;;;20.53;75.16
59337;BME280;45115;52.002;4.686;2023-06-19T01:07:27;100846.31;;;20.50;75.61
59337;BME280;45115;52.002;4.686;2023-06-19T01:09:59;100848.00;;;20.45;76.49
59337;BME280;45115;52.002;4.686;2023-06-19T01:12:35;100849.69;;;20.39;77.49
59337;BME280;45115;52.002;4.686;2023-06-19T01:15:04;100850.94;;;20.37;77.87
59337;BME280;45115;52.002;4.686;2023-06-19T01:17:32;100852.63;;;20.31;78.59
59337;BME280;45115;52.002;4.686;2023-06-19T01:20:00;100846.84;;;20.26;78.63
59337;BME280;45115;52.002;4.686;2023-06-19T01:22:33;100852.84;;;20.30;78.97
59337;BME280;45115;52.002;4.686;2023-06-19T01:25:00;100857.38;;;20.31;78.80
59337;BME280;45115;52.002;4.686;2023-06-19T01:27:27;100856.25;;;20.25;79.32
59337;BME280;45115;52.002;4.686;2023-06-19T01:29:56;100848.53;;;20.21;79.60
59337;BME280;45115;52.002;4.686;2023-06-19T01:32:26;100845.47;;;20.16;80.20
59337;BME280;45115;52.002;4.686;2023-06-19T01:34:57;100854.91;;;20.15;80.48
59337;BME280;45115;52.002;4.686;2023-06-19T01:37:25;100850.84;;;20.17;80.71
59337;BME280;45115;52.002;4.686;2023-06-19T01:39:56;100846.56;;;20.15;80.98
59337;BME280;45115;52.002;4.686;2023-06-19T01:42:23;100842.91;;;20.14;81.08
59337;BME280;45115;52.002;4.686;2023-06-19T01:44:50;100848.03;;;20.11;81.28
59337;BME280;45115;52.002;4.686;2023-06-19T01:47:17;100837.75;;;20.11;81.01
59337;BME280;45115;52.002;4.686;2023-06-19T01:49:45;100838.03;;;20.16;81.16
59337;BME280;45115;52.002;4.686;2023-06-19T01:52:12;100832.47;;;20.16;80.91
59337;BME280;45115;52.002;4.686;2023-06-19T01:54:39;100842.03;;;20.14;81.45
59337;BME280;45115;52.002;4.686;2023-06-19T01:57:07;100834.78;;;20.13;81.47
59337;BME280;45115;52.002;4.686;2023-06-19T01:59:35;100838.47;;;20.20;80.89
59337;BME280;45115;52.002;4.686;2023-06-19T02:02:02;100837.59;;;20.19;81.39
59337;BME280;45115;52.002;4.686;2023-06-19T02:04:29;100844.59;;;20.09;81.49
59337;BME280;45115;52.002;4.686;2023-06-19T02:06:56;100843.16;;;20.19;81.43
59337;BME280;45115;52.002;4.686;2023-06-19T02:09:22;100848.34;;;20.22;81.37
59337;BME280;45115;52.002;4.686;2023-06-19T02:11:49;100842.13;;;20.20;81.47
59337;BME280;45115;52.002;4.686;2023-06-19T02:14:17;100852.38;;;20.20;81.29
59337;BME280;45115;52.002;4.686;2023-06-19T02:16:46;100850.69;;;20.25;81.49
59337;BME280;45115;52.002;4.686;2023-06-19T02:19:13;100843.59;;;20.23;81.59
59337;BME280;45115;52.002;4.686;2023-06-19T02:21:39;100846.84;;;20.26;82.14
59337;BME280;45115;52.002;4.686;2023-06-19T02:24:06;100852.38;;;20.20;83.10
59337;BME280;45115;52.002;4.686;2023-06-19T02:26:33;100855.09;;;20.13;83.65
59337;BME280;45115;52.002;4.686;2023-06-19T02:28:59;100851.47;;;20.13;83.65
59337;BME280;45115;52.002;4.686;2023-06-19T02:31:28;100854.94;;;20.21;83.68
59337;BME280;45115;52.002;4.686;2023-06-19T02:33:57;100856.69;;;20.22;83.88
59337;BME280;45115;52.002;4.686;2023-06-19T02:36:23;100869.50;;;20.17;84.73
59337;BME280;45115;52.002;4.686;2023-06-19T02:38:51;100869.84;;;20.14;85.26
59337;BME280;45115;52.002;4.686;2023-06-19T02:41:18;100875.41;;;20.14;85.94
59337;BME280;45115;52.002;4.686;2023-06-19T02:43:45;100865.34;;;20.06;86.66
59337;BME280;45115;52.002;4.686;2023-06-19T02:46:12;100877.13;;;20.08;87.16
59337;BME280;45115;52.002;4.686;2023-06-19T02:48:41;100890.38;;;20.06;87.68
59337;BME280;45115;52.002;4.686;2023-06-19T02:51:08;100892.47;;;19.97;88.39
59337;BME280;45115;52.002;4.686;2023-06-19T02:53:35;100884.91;;;19.91;88.72
59337;BME280;45115;52.002;4.686;2023-06-19T02:56:02;100888.13;;;19.88;89.38
59337;BME280;45115;52.002;4.686;2023-06-19T02:58:28;100886.66;;;19.92;88.91
59337;BME280;45115;52.002;4.686;2023-06-19T03:00:55;100886.84;;;19.91;89.05
59337;BME280;45115;52.002;4.686;2023-06-19T03:03:22;100897.78;;;19.92;88.60
59337;BME280;45115;52.002;4.686;2023-06-19T03:05:51;100903.72;;;19.89;88.15
59337;BME280;45115;52.002;4.686;2023-06-19T03:08:18;100891.34;;;19.92;88.27
59337;BME280;45115;52.002;4.686;2023-06-19T03:10:44;100903.94;;;19.88;88.69
59337;BME280;45115;52.002;4.686;2023-06-19T03:13:12;100915.47;;;19.85;88.89
59337;BME280;45115;52.002;4.686;2023-06-19T03:15:39;100910.78;;;19.85;88.24
59337;BME280;45115;52.002;4.686;2023-06-19T03:18:06;100915.69;;;19.83;88.04
59337;BME280;45115;52.002;4.686;2023-06-19T03:20:36;100916.34;;;19.85;87.75
59337;BME280;45115;52.002;4.686;2023-06-19T03:23:04;100922.28;;;19.82;87.42
59337;BME280;45115;52.002;4.686;2023-06-19T03:25:31;100919.75;;;19.87;87.04
59337;BME280;45115;52.002;4.686;2023-06-19T03:28:01;100921.72;;;19.93;86.24
59337;BME280;45115;52.002;4.686;2023-06-19T03:30:29;100926.63;;;19.91;86.21
59337;BME280;45115;52.002;4.686;2023-06-19T03:32:56;100935.97;;;19.84;86.01
59337;BME280;45115;52.002;4.686;2023-06-19T03:35:38;100943.41;;;19.77;86.32
59337;BME280;45115;52.002;4.686;2023-06-19T03:38:10;100935.47;;;19.74;85.62
59337;BME280;45115;52.002;4.686;2023-06-19T03:40:36;100941.50;;;19.77;85.33
59337;BME280;45115;52.002;4.686;2023-06-19T03:43:09;100944.47;;;19.76;85.06
59337;BME280;45115;52.002;4.686;2023-06-19T03:45:37;100958.59;;;19.74;85.29
59337;BME280;45115;52.002;4.686;2023-06-19T03:48:04;100966.47;;;19.71;85.10
59337;BME280;45115;52.002;4.686;2023-06-19T03:50:31;100969.50;;;19.76;84.84
59337;BME280;45115;52.002;4.686;2023-06-19T03:52:57;100966.09;;;19.80;84.79
59337;BME280;45115;52.002;4.686;2023-06-19T03:55:26;100973.59;;;19.80;84.54
59337;BME280;45115;52.002;4.686;2023-06-19T03:57:53;100975.09;;;19.82;84.72
59337;BME280;45115;52.002;4.686;2023-06-19T04:00:21;100993.91;;;19.80;84.82
59337;BME280;45115;52.002;4.686;2023-06-19T04:02:49;100995.44;;;19.83;84.72
59337;BME280;45115;52.002;4.686;2023-06-19T04:05:16;100996.06;;;19.78;84.52
59337;BME280;45115;52.002;4.686;2023-06-19T04:07:43;100993.84;;;19.74;83.45
59337;BME280;45115;52.002;4.686;2023-06-19T04:10:12;101006.63;;;19.68;84.49
59337;BME280;45115;52.002;4.686;2023-06-19T04:12:40;101009.75;;;19.59;84.42
59337;BME280;45115;52.002;4.686;2023-06-19T04:15:08;101010.75;;;19.51;84.76
59337;BME280;45115;52.002;4.686;2023-06-19T04:17:35;101016.03;;;19.46;85.26
59337;BME280;45115;52.002;4.686;2023-06-19T04:20:02;101002.56;;;19.29;85.91
59337;BME280;45115;52.002;4.686;2023-06-19T04:22:36;101027.56;;;19.29;85.91
59337;BME280;45115;52.002;4.686;2023-06-19T04:25:04;101028.34;;;19.23;86.57
59337;BME280;45115;52.002;4.686;2023-06-19T04:27:30;101031.72;;;19.18;86.23
59337;BME280;45115;52.002;4.686;2023-06-19T04:29:58;101037.09;;;19.20;85.46
59337;BME280;45115;52.002;4.686;2023-06-19T04:32:25;101058.25;;;19.21;85.67
59337;BME280;45115;52.002;4.686;2023-06-19T04:34:52;101037.78;;;19.07;85.36
59337;BME280;45115;52.002;4.686;2023-06-19T04:37:18;101053.94;;;19.18;85.25
59337;BME280;45115;52.002;4.686;2023-06-19T04:39:45;101049.16;;;19.12;85.35
59337;BME280;45115;52.002;4.686;2023-06-19T04:42:13;101067.84;;;19.18;84.84
59337;BME280;45115;52.002;4.686;2023-06-19T04:44:44;101064.19;;;19.18;84.64
59337;BME280;45115;52.002;4.686;2023-06-19T04:47:12;101067.38;;;19.15;84.23
59337;BME280;45115;52.002;4.686;2023-06-19T04:49:39;101070.13;;;19.15;84.08
59337;BME280;45115;52.002;4.686;2023-06-19T04:52:06;101079.16;;;19.17;83.92
59337;BME280;45115;52.002;4.686;2023-06-19T04:54:33;101077.72;;;19.21;84.16
59337;BME280;45115;52.002;4.686;2023-06-19T04:57:00;101080.00;;;19.17;84.10
59337;BME280;45115;52.002;4.686;2023-06-19T04:59:27;101074.00;;;19.14;84.02
59337;BME280;45115;52.002;4.686;2023-06-19T05:01:55;101077.72;;;19.06;83.15
59337;BME280;45115;52.002;4.686;2023-06-19T05:04:24;101086.72;;;19.08;83.54
59337;BME280;45115;52.002;4.686;2023-06-19T05:06:50;101081.44;;;19.13;83.55
59337;BME280;45115;52.002;4.686;2023-06-19T05:09:17;101095.81;;;19.17;82.99
59337;BME280;45115;52.002;4.686;2023-06-19T05:11:45;101090.66;;;19.14;82.59
59337;BME280;45115;52.002;4.686;2023-06-19T05:14:11;101081.66;;;19.12;82.40
59337;BME280;45115;52.002;4.686;2023-06-19T05:16:39;101097.91;;;19.15;82.34
59337;BME280;45115;52.002;4.686;2023-06-19T05:19:06;101096.84;;;19.16;82.30
59337;BME280;45115;52.002;4.686;2023-06-19T05:21:34;101102.72;;;19.21;82.24
59337;BME280;45115;52.002;4.686;2023-06-19T05:24:00;101092.63;;;19.20;82.40
59337;BME280;45115;52.002;4.686;2023-06-19T05:26:27;101097.16;;;19.21;82.53
59337;BME280;45115;52.002;4.686;2023-06-19T05:28:54;101095.00;;;19.23;81.98
59337;BME280;45115;52.002;4.686;2023-06-19T05:31:20;101109.56;;;19.25;82.08
59337;BME280;45115;52.002;4.686;2023-06-19T05:33:47;101111.97;;;19.28;82.24
59337;BME280;45115;52.002;4.686;2023-06-19T05:36:14;101123.41;;;19.33;81.69
59337;BME280;45115;52.002;4.686;2023-06-19T05:38:42;101118.38;;;19.28;81.82
59337;BME280;45115;52.002;4.686;2023-06-19T05:41:08;101122.31;;;19.48;81.20
59337;BME280;45115;52.002;4.686;2023-06-19T05:43:35;101126.44;;;19.52;80.85
59337;BME280;45115;52.002;4.686;2023-06-19T05:46:02;101117.00;;;19.53;81.05
59337;BME280;45115;52.002;4.686;2023-06-19T05:48:28;101137.41;;;19.60;80.34
59337;BME280;45115;52.002;4.686;2023-06-19T05:50:55;101120.00;;;19.52;80.68
59337;BME280;45115;52.002;4.686;2023-06-19T05:53:22;101133.50;;;19.55;79.44
59337;BME280;45115;52.002;4.686;2023-06-19T05:55:51;101139.44;;;19.52;79.96
59337;BME280;45115;52.002;4.686;2023-06-19T05:58:17;101145.53;;;19.62;79.52
59337;BME280;45115;52.002;4.686;2023-06-19T06:00:45;101129.56;;;19.49;79.47
59337;BME280;45115;52.002;4.686;2023-06-19T06:03:12;101133.63;;;19.47;79.59
59337;BME280;45115;52.002;4.686;2023-06-19T06:05:39;101158.56;;;19.61;77.99
59337;BME280;45115;52.002;4.686;2023-06-19T06:08:05;101156.59;;;19.55;78.17
59337;BME280;45115;52.002;4.686;2023-06-19T06:10:32;101172.38;;;19.69;78.16
59337;BME280;45115;52.002;4.686;2023-06-19T06:13:00;101164.28;;;19.74;77.33
59337;BME280;45115;52.002;4.686;2023-06-19T06:15:27;101166.22;;;19.74;76.33
59337;BME280;45115;52.002;4.686;2023-06-19T06:17:54;101182.31;;;19.78;77.25
59337;BME280;45115;52.002;4.686;2023-06-19T06:20:21;101173.69;;;19.73;77.52
59337;BME280;45115;52.002;4.686;2023-06-19T06:22:47;101179.91;;;19.75;77.16
59337;BME280;45115;52.002;4.686;2023-06-19T06:25:14;101182.81;;;19.67;77.77
59337;BME280;45115;52.002;4.686;2023-06-19T06:27:41;101167.63;;;19.49;78.19
59337;BME280;45115;52.002;4.686;2023-06-19T06:30:10;101193.66;;;19.62;78.49
59337;BME280;45115;52.002;4.686;2023-06-19T06:32:38;101183.84;;;19.66;78.65
59337;BME280;45115;52.002;4.686;2023-06-19T06:35:06;101198.31;;;19.76;77.33
59337;BME280;45115;52.002;4.686;2023-06-19T06:37:32;101201.19;;;19.83;76.94
59337;BME280;45115;52.002;4.686;2023-06-19T06:39:59;101206.44;;;19.92;76.77
59337;BME280;45115;52.002;4.686;2023-06-19T06:42:26;101215.84;;;20.13;76.01
59337;BME280;45115;52.002;4.686;2023-06-19T06:44:53;101216.50;;;20.15;76.77
59337;BME280;45115;52.002;4.686;2023-06-19T06:47:21;101216.97;;;19.97;75.93
59337;BME280;45115;52.002;4.686;2023-06-19T06:49:48;101215.84;;;20.13;75.58
59337;BME280;45115;52.002;4.686;2023-06-19T06:52:14;101219.19;;;20.23;75.77
59337;BME280;45115;52.002;4.686;2023-06-19T06:54:41;101228.50;;;20.15;75.07
59337;BME280;45115;52.002;4.686;2023-06-19T06:57:08;101235.22;;;20.21;74.92
59337;BME280;45115;52.002;4.686;2023-06-19T06:59:34;101233.69;;;20.18;74.85
59337;BME280;45115;52.002;4.686;2023-06-19T07:02:01;101241.53;;;20.29;74.61
59337;BME280;45115;52.002;4.686;2023-06-19T07:04:29;101235.81;;;20.37;74.29
59337;BME280;45115;52.002;4.686;2023-06-19T07:06:57;101251.22;;;20.61;73.29
59337;BME280;45115;52.002;4.686;2023-06-19T07:09:24;101253.75;;;20.56;73.59
59337;BME280;45115;52.002;4.686;2023-06-19T07:11:51;101253.25;;;20.46;74.16
59337;BME280;45115;52.002;4.686;2023-06-19T07:14:17;101260.50;;;20.68;73.07
59337;BME280;45115;52.002;4.686;2023-06-19T07:16:46;101260.44;;;21.03;71.78
59337;BME280;45115;52.002;4.686;2023-06-19T07:19:17;101257.63;;;21.31;70.97
59337;BME280;45115;52.002;4.686;2023-06-19T07:21:45;101258.06;;;21.69;69.21
59337;BME280;45115;52.002;4.686;2023-06-19T07:24:12;101255.63;;;21.59;68.65
59337;BME280;45115;52.002;4.686;2023-06-19T07:26:39;101252.38;;;21.49;69.37
59337;BME280;45115;52.002;4.686;2023-06-19T07:29:06;101249.22;;;21.59;68.43
59337;BME280;45115;52.002;4.686;2023-06-19T07:31:33;101253.25;;;22.77;64.15
59337;BME280;45115;52.002;4.686;2023-06-19T07:34:00;101256.47;;;22.80;63.17
59337;BME280;45115;52.002;4.686;2023-06-19T07:36:26;101258.81;;;22.57;63.58
59337;BME280;45115;52.002;4.686;2023-06-19T07:38:54;101270.34;;;22.41;64.45
59337;BME280;45115;52.002;4.686;2023-06-19T07:41:21;101268.66;;;22.40;64.41
59337;BME280;45115;52.002;4.686;2023-06-19T07:43:48;101273.75;;;22.24;64.59
59337;BME280;45115;52.002;4.686;2023-06-19T07:46:15;101259.75;;;22.10;65.05
59337;BME280;45115;52.002;4.686;2023-06-19T07:48:42;101264.91;;;22.13;65.25
59337;BME280;45115;52.002;4.686;2023-06-19T07:51:09;101265.84;;;22.40;64.55
59337;BME280;45115;52.002;4.686;2023-06-19T07:53:35;101272.25;;;22.28;65.15
59337;BME280;45115;52.002;4.686;2023-06-19T07:56:03;101269.09;;;22.44;65.34
59337;BME280;45115;52.002;4.686;2023-06-19T07:58:30;101259.25;;;22.54;64.27
59337;BME280;45115;52.002;4.686;2023-06-19T08:00:57;101268.31;;;22.82;63.10
59337;BME280;45115;52.002;4.686;2023-06-19T08:03:23;101271.50;;;22.99;62.54
59337;BME280;45115;52.002;4.686;2023-06-19T08:05:50;101278.88;;;24.47;58.09
59337;BME280;45115;52.002;4.686;2023-06-19T08:08:17;101279.09;;;24.46;57.63
59337;BME280;45115;52.002;4.686;2023-06-19T08:10:44;101278.47;;;23.93;58.08
59337;BME280;45115;52.002;4.686;2023-06-19T08:13:12;101281.16;;;23.55;59.92
59337;BME280;45115;52.002;4.686;2023-06-19T08:15:39;101260.34;;;23.38;60.93
59337;BME280;45115;52.002;4.686;2023-06-19T08:18:05;101282.09;;;23.93;60.02
59337;BME280;45115;52.002;4.686;2023-06-19T08:20:32;101282.16;;;23.80;59.05
59337;BME280;45115;52.002;4.686;2023-06-19T08:22:59;101289.84;;;24.04;58.35
59337;BME280;45115;52.002;4.686;2023-06-19T08:25:25;101292.19;;;24.14;58.33
59337;BME280;45115;52.002;4.686;2023-06-19T08:27:52;101300.59;;;24.14;58.93
59337;BME280;45115;52.002;4.686;2023-06-19T08:30:20;101313.19;;;24.67;57.20
59337;BME280;45115;52.002;4.686;2023-06-19T08:32:47;101313.72;;;24.51;56.36
59337;BME280;45115;52.002;4.686;2023-06-19T08:35:14;101325.59;;;24.02;57.44
59337;BME280;45115;52.002;4.686;2023-06-19T08:37:41;101323.06;;;23.75;58.67
59337;BME280;45115;52.002;4.686;2023-06-19T08:40:09;101321.88;;;24.15;58.29
59337;BME280;45115;52.002;4.686;2023-06-19T08:42:36;101329.91;;;23.98;57.53
59337;BME280;45115;52.002;4.686;2023-06-19T08:45:05;101321.38;;;23.21;60.36
59337;BME280;45115;52.002;4.686;2023-06-19T08:47:34;101331.94;;;23.06;60.49
59337;BME280;45115;52.002;4.686;2023-06-19T08:50:01;101325.25;;;23.27;59.97
59337;BME280;45115;52.002;4.686;2023-06-19T08:52:28;101314.06;;;23.53;59.37
59337;BME280;45115;52.002;4.686;2023-06-19T08:54:54;101310.31;;;24.05;59.04
59337;BME280;45115;52.002;4.686;2023-06-19T08:57:21;101318.88;;;24.16;57.21
59337;BME280;45115;52.002;4.686;2023-06-19T08:59:48;101319.91;;;24.22;58.04
59337;BME280;45115;52.002;4.686;2023-06-19T09:02:15;101318.03;;;24.09;58.26
59337;BME280;45115;52.002;4.686;2023-06-19T09:04:44;101325.59;;;24.84;56.14
59337;BME280;45115;52.002;4.686;2023-06-19T09:07:12;101328.22;;;25.42;53.96
59337;BME280;45115;52.002;4.686;2023-06-19T09:09:45;101326.00;;;25.68;53.82
59337;BME280;45115;52.002;4.686;2023-06-19T09:12:14;101332.88;;;26.26;52.28
59337;BME280;45115;52.002;4.686;2023-06-19T09:14:45;101338.75;;;26.25;51.87
59337;BME280;45115;52.002;4.686;2023-06-19T09:17:12;101337.56;;;26.14;50.52
59337;BME280;45115;52.002;4.686;2023-06-19T09:19:48;101342.03;;;26.22;50.49
59337;BME280;45115;52.002;4.686;2023-06-19T09:22:16;101341.63;;;26.18;50.76
59337;BME280;45115;52.002;4.686;2023-06-19T09:24:44;101352.47;;;25.54;52.46
59337;BME280;45115;52.002;4.686;2023-06-19T09:27:13;101353.56;;;24.97;53.60
59337;BME280;45115;52.002;4.686;2023-06-19T09:29:40;101362.25;;;24.45;56.13
59337;BME280;45115;52.002;4.686;2023-06-19T09:32:15;101357.13;;;24.36;56.21
59337;BME280;45115;52.002;4.686;2023-06-19T09:34:41;101361.94;;;25.28;54.16
59337;BME280;45115;52.002;4.686;2023-06-19T09:37:09;101357.44;;;25.27;53.71
59337;BME280;45115;52.002;4.686;2023-06-19T09:39:37;101374.34;;;25.14;53.61
59337;BME280;45115;52.002;4.686;2023-06-19T09:42:06;101375.03;;;24.79;55.08
59337;BME280;45115;52.002;4.686;2023-06-19T09:44:39;101372.44;;;24.26;55.87
59337;BME280;45115;52.002;4.686;2023-06-19T09:47:14;101380.34;;;24.49;56.68
59337;BME280;45115;52.002;4.686;2023-06-19T09:49:48;101378.91;;;25.09;54.42
59337;BME280;45115;52.002;4.686;2023-06-19T09:52:18;101380.31;;;25.56;52.66
59337;BME280;45115;52.002;4.686;2023-06-19T09:54:47;101381.91;;;25.45;52.37
59337;BME280;45115;52.002;4.686;2023-06-19T09:57:15;101398.34;;;25.35;52.25
59337;BME280;45115;52.002;4.686;2023-06-19T09:59:43;101388.00;;;25.04;53.39
59337;BME280;45115;52.002;4.686;2023-06-19T10:02:10;101388.94;;;24.92;53.58
59337;BME280;45115;52.002;4.686;2023-06-19T10:04:44;101390.59;;;24.68;53.95
59337;BME280;45115;52.002;4.686;2023-06-19T10:07:15;101394.19;;;25.13;53.81
59337;BME280;45115;52.002;4.686;2023-06-19T10:09:56;101385.03;;;24.99;53.87
59337;BME280;45115;52.002;4.686;2023-06-19T10:12:34;101384.13;;;25.61;52.79
59337;BME280;45115;52.002;4.686;2023-06-19T10:15:09;101386.31;;;26.56;49.78
59337;BME280;45115;52.002;4.686;2023-06-19T10:17:36;101386.13;;;25.97;50.48
59337;BME280;45115;52.002;4.686;2023-06-19T10:20:03;101384.97;;;26.77;49.44
59337;BME280;45115;52.002;4.686;2023-06-19T10:22:30;101388.31;;;27.26;48.22
59337;BME280;45115;52.002;4.686;2023-06-19T10:24:59;101374.81;;;27.70;46.15
59337;BME280;45115;52.002;4.686;2023-06-19T10:27:25;101381.69;;;27.74;46.60
59337;BME280;45115;52.002;4.686;2023-06-19T10:29:52;101375.47;;;27.83;45.35
59337;BME280;45115;52.002;4.686;2023-06-19T10:32:19;101377.31;;;28.01;44.15
59337;BME280;45115;52.002;4.686;2023-06-19T10:34:47;101378.84;;;27.85;45.09
59337;BME280;45115;52.002;4.686;2023-06-19T10:37:14;101387.69;;;27.89;44.92
59337;BME280;45115;52.002;4.686;2023-06-19T10:39:41;101388.31;;;27.79;45.30
59337;BME280;45115;52.002;4.686;2023-06-19T10:42:10;101381.81;;;27.90;44.84
59337;BME280;45115;52.002;4.686;2023-06-19T10:44:37;101373.13;;;28.03;43.22
59337;BME280;45115;52.002;4.686;2023-06-19T10:47:04;101368.84;;;27.78;44.04
59337;BME280;45115;52.002;4.686;2023-06-19T10:49:32;101385.88;;;27.71;45.79
59337;BME280;45115;52.002;4.686;2023-06-19T10:51:59;101382.25;;;27.29;45.52
59337;BME280;45115;52.002;4.686;2023-06-19T10:54:28;101383.59;;;27.38;45.64
59337;BME280;45115;52.002;4.686;2023-06-19T10:56:55;101386.47;;;27.50;45.64
59337;BME280;45115;52.002;4.686;2023-06-19T10:59:24;101379.41;;;27.94;45.20
59337;BME280;45115;52.002;4.686;2023-06-19T11:01:50;101360.13;;;27.91;44.43
59337;BME280;45115;52.002;4.686;2023-06-19T11:04:18;101358.06;;;28.09;44.97
59337;BME280;45115;52.002;4.686;2023-06-19T11:06:45;101363.78;;;28.26;43.99
59337;BME280;45115;52.002;4.686;2023-06-19T11:09:13;101363.81;;;28.03;43.27
59337;BME280;45115;52.002;4.686;2023-06-19T11:11:44;101354.47;;;28.37;43.31
59337;BME280;45115;52.002;4.686;2023-06-19T11:14:12;101358.25;;;28.31;43.40
59337;BME280;45115;52.002;4.686;2023-06-19T11:16:41;101363.16;;;29.03;40.49
59337;BME280;45115;52.002;4.686;2023-06-19T11:19:09;101354.34;;;29.28;41.29
59337;BME280;45115;52.002;4.686;2023-06-19T11:21:37;101371.53;;;29.43;40.29
59337;BME280;45115;52.002;4.686;2023-06-19T11:24:05;101364.59;;;29.50;38.69
59337;BME280;45115;52.002;4.686;2023-06-19T11:26:35;101363.16;;;29.64;39.59
59337;BME280;45115;52.002;4.686;2023-06-19T11:29:02;101358.75;;;28.79;41.54
59337;BME280;45115;52.002;4.686;2023-06-19T11:31:29;101379.03;;;29.37;40.32
59337;BME280;45115;52.002;4.686;2023-06-19T11:33:58;101365.72;;;29.05;40.20
59337;BME280;45115;52.002;4.686;2023-06-19T11:36:27;101369.97;;;29.19;40.01
59337;BME280;45115;52.002;4.686;2023-06-19T11:38:55;101366.19;;;28.57;41.14
59337;BME280;45115;52.002;4.686;2023-06-19T11:41:26;101366.00;;;27.89;43.30
59337;BME280;45115;52.002;4.686;2023-06-19T11:44:00;101378.59;;;27.40;44.21
59337;BME280;45115;52.002;4.686;2023-06-19T11:46:31;101377.00;;;28.37;42.23
59337;BME280;45115;52.002;4.686;2023-06-19T11:49:09;101366.44;;;28.84;42.36
59337;BME280;45115;52.002;4.686;2023-06-19T11:51:36;101373.16;;;28.43;40.66
59337;BME280;45115;52.002;4.686;2023-06-19T11:54:06;101377.28;;;28.12;42.54
59337;BME280;45115;52.002;4.686;2023-06-19T11:56:33;101386.53;;;28.59;42.03
59337;BME280;45115;52.002;4.686;2023-06-19T11:59:01;101379.00;;;28.25;41.83
59337;BME280;45115;52.002;4.686;2023-06-19T12:01:28;101381.22;;;28.00;42.21
59337;BME280;45115;52.002;4.686;2023-06-19T12:03:55;101374.25;;;27.68;43.30
59337;BME280;45115;52.002;4.686;2023-06-19T12:06:23;101380.09;;;27.55;43.30
59337;BME280;45115;52.002;4.686;2023-06-19T12:08:50;101387.28;;;27.39;43.95
59337;BME280;45115;52.002;4.686;2023-06-19T12:11:17;101384.25;;;27.75;44.36
59337;BME280;45115;52.002;4.686;2023-06-19T12:13:43;101380.88;;;28.08;43.05
59337;BME280;45115;52.002;4.686;2023-06-19T12:16:10;101371.28;;;28.72;42.00
59337;BME280;45115;52.002;4.686;2023-06-19T12:18:37;101382.66;;;28.37;42.11
59337;BME280;45115;52.002;4.686;2023-06-19T12:21:04;101378.78;;;28.15;41.12
59337;BME280;45115;52.002;4.686;2023-06-19T12:23:32;101387.97;;;28.50;41.84
59337;BME280;45115;52.002;4.686;2023-06-19T12:25:59;101381.41;;;28.44;40.98
59337;BME280;45115;52.002;4.686;2023-06-19T12:28:26;101385.59;;;29.71;39.17
59337;BME280;45115;52.002;4.686;2023-06-19T12:30:53;101388.81;;;29.63;37.40
59337;BME280;45115;52.002;4.686;2023-06-19T12:33:21;101388.06;;;30.60;36.44
59337;BME280;45115;52.002;4.686;2023-06-19T12:35:48;101379.97;;;30.69;35.46
59337;BME280;45115;52.002;4.686;2023-06-19T12:38:15;101384.50;;;31.40;34.83
59337;BME280;45115;52.002;4.686;2023-06-19T12:40:44;101379.56;;;31.94;33.19
59337;BME280;45115;52.002;4.686;2023-06-19T12:43:11;101380.50;;;31.14;34.54
59337;BME280;45115;52.002;4.686;2023-06-19T12:45:37;101387.88;;;30.89;35.08
59337;BME280;45115;52.002;4.686;2023-06-19T12:48:06;101388.75;;;30.89;35.70
59337;BME280;45115;52.002;4.686;2023-06-19T12:50:33;101378.25;;;30.90;34.24
59337;BME280;45115;52.002;4.686;2023-06-19T12:52:59;101382.25;;;31.42;33.26